Time;durP1;ratioP1;P1;durP2;ratioP2;P2;SDS_P1;SDS_P2;PMS_P1;PMS_P2;Temp;Humidity;BMP_temperature;BMP_pressure;BME280_temperature;BME280_humidity;BME280_pressure;Samples;Min_cycle;Max_cycle;Signal;HPM_P1;HPM_P2
2023/10/17 00:01:46;;;;;;;6.07;1.45;;;;;;;;;;5029647;28;20021;-85
2023/10/17 00:06:44;;;;;;;8.15;1.52;;;;;;;;;;5029063;28;20120;-85
2023/10/17 00:09:10;;;;;;;4.55;1.60;;;;;;;;;;5028928;28;20026;-84
2023/10/17 00:11:51;;;;;;;2.58;1.05;;;;;;;;;;5035424;28;20049;-84
2023/10/17 00:14:17;;;;;;;6.10;1.00;;;;;;;;;;5036872;28;20482;-86
2023/10/17 00:16:43;;;;;;;6.80;1.73;;;;;;;;;;5032152;28;20041;-85
2023/10/17 00:19:09;;;;;;;6.40;2.38;;;;;;;;;;5035089;28;20033;-86
2023/10/17 00:21:36;;;;;;;3.72;1.60;;;2.00;99.90;;;;;;5030731;28;20061;-87
2023/10/17 00:24:08;;;;;;;2.95;1.45;;;;;;;;;;5039821;28;20030;-82
2023/10/17 00:26:35;;;;;;;3.58;1.50;;;;;;;;;;5039454;28;21333;-85
2023/10/17 00:29:04;;;;;;;3.33;2.03;;;1.80;99.90;;;;;;5038245;28;20057;-84
2023/10/17 00:31:30;;;;;;;3.85;1.83;;;;;;;;;;5035499;28;20033;-84
2023/10/17 00:34:12;;;;;;;4.30;1.88;;;;;;;;;;5029205;28;20508;-83
2023/10/17 00:36:47;;;;;;;3.38;1.10;;;;;;;;;;5033179;28;20036;-84
2023/10/17 00:39:16;;;;;;;4.22;2.10;;;;;;;;;;5035270;28;20371;-85
2023/10/17 00:41:52;;;;;;;2.75;1.15;;;;;;;;;;5043535;28;20076;-84
2023/10/17 00:44:27;;;;;;;2.97;1.58;;;;;;;;;;5026543;28;20024;-84
2023/10/17 00:46:53;;;;;;;3.13;1.83;;;;;;;;;;5036627;28;20513;-85
2023/10/17 00:49:21;;;;;;;3.08;1.52;;;;;;;;;;5030685;28;20029;-85
2023/10/17 00:51:48;;;;;;;7.28;1.30;;;;;;;;;;5034176;28;20493;-84
2023/10/17 00:54:17;;;;;;;4.35;1.95;;;;;;;;;;5029606;28;20032;-82
2023/10/17 00:56:43;;;;;;;3.95;2.35;;;;;;;;;;5038088;28;20060;-85
2023/10/17 00:59:09;;;;;;;3.65;1.63;;;;;;;;;;5032538;28;21770;-86
2023/10/17 01:01:36;;;;;;;2.47;1.33;;;;;;;;;;5028068;28;20028;-85
2023/10/17 01:04:02;;;;;;;2.67;1.33;;;;;;;;;;5038485;28;20041;-83
2023/10/17 01:11:43;;;;;;;1.83;1.10;;;;;;;;;;5036125;28;20039;-87
2023/10/17 01:14:09;;;;;;;4.82;1.27;;;;;;;;;;5038403;28;20074;-84
2023/10/17 01:16:35;;;;;;;4.05;1.33;;;;;;;;;;5036095;28;20033;-85
2023/10/17 01:19:11;;;;;;;5.97;1.80;;;;;;;;;;5028753;28;20025;-83
2023/10/17 01:21:40;;;;;;;3.58;1.40;;;;;;;;;;5032195;28;20029;-84
2023/10/17 01:24:07;;;;;;;3.03;1.30;;;;;;;;;;5033767;28;20036;-83
2023/10/17 01:26:37;;;;;;;7.07;1.92;;;;;;;;;;5019437;28;20037;-86
2023/10/17 01:29:04;;;;;;;6.60;2.22;;;;;;;;;;5031930;28;20029;-86
2023/10/17 01:31:33;;;;;;;3.08;1.65;;;;;;;;;;5027653;28;20079;-86
2023/10/17 01:33:59;;;;;;;2.92;1.35;;;;;;;;;;5032103;28;20021;-85
2023/10/17 01:36:26;;;;;;;2.17;1.13;;;;;;;;;;5036145;28;20120;-85
2023/10/17 01:38:52;;;;;;;3.50;1.33;;;;;;;;;;5030318;28;20029;-86
2023/10/17 01:41:18;;;;;;;5.00;2.10;;;;;;;;;;5030217;28;20108;-85
2023/10/17 01:43:45;;;;;;;5.10;1.73;;;;;;;;;;5038028;28;20110;-86
2023/10/17 01:46:21;;;;;;;2.75;1.58;;;;;;;;;;5035826;28;20048;-85
2023/10/17 01:48:48;;;;;;;3.58;1.50;;;;;;;;;;5026986;28;20104;-84
2023/10/17 01:51:15;;;;;;;3.20;1.75;;;;;;;;;;5035206;28;20047;-84
2023/10/17 01:53:43;;;;;;;3.97;1.75;;;;;;;;;;5038540;28;20025;-85
2023/10/17 01:56:15;;;;;;;4.68;2.05;;;;;;;;;;5034276;28;20113;-85
2023/10/17 01:58:50;;;;;;;2.97;1.45;;;1.30;99.90;;;;;;5037480;28;20032;-83
2023/10/17 02:01:29;;;;;;;2.30;1.45;;;;;;;;;;5029541;28;20106;-86
2023/10/17 02:04:30;;;;;;;2.70;1.73;;;1.10;99.90;;;;;;5031336;28;20033;-85
2023/10/17 02:06:48;;;;;;;3.07;1.33;;;;;;;;;;4990381;28;1217660;-84
2023/10/17 02:12:01;;;;;;;3.45;1.58;;;1.30;99.90;;;;;;5034866;28;20092;-84
2023/10/17 02:14:27;;;;;;;3.53;1.60;;;;;;;;;;5027742;28;20401;-84
2023/10/17 02:16:55;;;;;;;2.47;1.17;;;;;;;;;;5030804;28;20029;-84
2023/10/17 02:19:31;;;;;;;2.50;1.83;;;;;;;;;;5021061;28;20025;-84
2023/10/17 02:21:58;;;;;;;4.05;1.13;;;;;;;;;;5031649;28;20028;-85
2023/10/17 02:24:29;;;;;;;3.17;1.60;;;1.10;99.90;;;;;;5034450;28;20029;-85
2023/10/17 02:26:56;;;;;;;4.22;1.65;;;;;;;;;;5062891;28;20029;-81
2023/10/17 02:29:26;;;;;;;2.25;1.30;;;;;;;;;;5034590;28;20120;-83
2023/10/17 02:31:54;;;;;;;2.22;1.27;;;;;;;;;;5030424;28;20490;-86
2023/10/17 02:34:23;;;;;;;5.55;1.40;;;;;;;;;;5041096;28;20030;-81
2023/10/17 02:36:49;;;;;;;2.70;1.45;;;;;;;;;;5036372;28;20029;-83
2023/10/17 02:39:15;;;;;;;3.75;1.40;;;;;;;;;;5034728;28;20021;-84
2023/10/17 02:41:57;;;;;;;4.32;2.45;;;;;;;;;;5037131;28;20022;-85
2023/10/17 02:44:24;;;;;;;2.53;1.58;;;;;;;;;;5034290;28;20020;-86
2023/10/17 02:46:50;;;;;;;3.20;1.70;;;;;;;;;;5030600;28;20026;-83
2023/10/17 02:49:16;;;;;;;5.30;3.15;;;;;;;;;;5033514;28;20067;-84
2023/10/17 02:51:45;;;;;;;4.15;1.50;;;;;;;;;;5032073;28;20037;-85
2023/10/17 02:54:13;;;;;;;3.67;1.80;;;;;;;;;;5030718;28;20401;-85
2023/10/17 02:56:46;;;;;;;2.47;1.50;;;;;;;;;;5032938;28;20404;-84
2023/10/17 02:59:12;;;;;;;5.22;2.28;;;;;;;;;;5032061;28;20707;-84
2023/10/17 03:01:40;;;;;;;2.25;1.15;;;;;;;;;;5034655;28;20072;-83
2023/10/17 03:04:13;;;;;;;2.67;1.55;;;0.40;99.90;;;;;;5031749;28;20532;-84
2023/10/17 03:06:43;;;;;;;5.57;2.28;;;1.10;99.90;;;;;;5039642;28;20036;-85
2023/10/17 03:14:39;;;;;;;3.10;2.05;;;1.00;99.90;;;;;;5031789;28;20035;-85
2023/10/17 03:17:05;;;;;;;5.13;2.03;;;;;;;;;;5034399;28;20429;-86
2023/10/17 03:19:32;;;;;;;3.80;1.92;;;;;;;;;;5032704;28;20474;-84
2023/10/17 03:21:59;;;;;;;3.67;2.38;;;;;;;;;;5028864;28;20025;-83
2023/10/17 03:24:44;;;;;;;3.00;1.80;;;;;;;;;;5033551;28;20028;-84
2023/10/17 03:27:11;;;;;;;8.43;1.40;;;;;;;;;;5036538;28;20563;-86
2023/10/17 03:29:42;;;;;;;3.72;1.25;;;;;;;;;;5027519;28;20033;-83
2023/10/17 03:32:11;;;;;;;6.85;1.45;;;;;;;;;;5029231;28;20465;-83
2023/10/17 03:34:42;;;;;;;2.50;1.38;;;;;;;;;;5036445;28;20068;-83
2023/10/17 03:37:43;;;;;;;2.10;1.20;;;;;;;;;;5032077;28;20445;-84
2023/10/17 03:40:16;;;;;;;3.40;1.73;;;;;;;;;;5027934;28;20029;-85
2023/10/17 03:42:46;;;;;;;3.80;1.60;;;;;;;;;;5032532;28;20728;-84
2023/10/17 03:45:13;;;;;;;3.60;1.95;;;;;;;;;;5034718;28;20124;-84
2023/10/17 03:48:04;;;;;;;4.15;1.95;;;0.30;99.90;;;;;;5040048;28;20037;-84
2023/10/17 03:50:48;;;;;;;3.45;1.38;;;;;;;;;;5033303;28;20028;-85
2023/10/17 03:53:15;;;;;;;4.78;1.23;;;;;;;;;;5035681;28;20048;-84
2023/10/17 03:55:42;;;;;;;3.28;1.90;;;;;;;;;;5028057;28;20060;-84
2023/10/17 04:00:54;;;;;;;2.45;1.40;;;;;;;;;;5026673;28;20043;-85
2023/10/17 04:03:22;;;;;;;2.65;1.67;;;;;;;;;;5034359;28;20097;-85
2023/10/17 04:05:50;;;;;;;3.50;1.60;;;0.90;99.90;;;;;;5042167;28;20116;-83
2023/10/17 04:08:26;;;;;;;1.30;1.08;;;;;;;;;;5036527;28;20075;-85
2023/10/17 04:13:37;;;;;;;2.22;1.52;;;;;;;;;;5015118;28;20576;-84
2023/10/17 04:16:14;;;;;;;3.60;1.27;;;;;;;;;;5008934;28;20026;-84
2023/10/17 04:18:40;;;;;;;4.63;2.50;;;;;;;;;;5024109;28;20025;-84
2023/10/17 04:21:45;;;;;;;3.00;1.40;;;;;;;;;;5022835;28;20029;-85
2023/10/17 04:23:59;;;;;;;6.20;1.83;;;;;;;;;;5036657;28;20505;-85
2023/10/17 04:26:45;;;;;;;3.28;1.73;;;;;;;;;;5039864;28;20041;-86
2023/10/17 04:29:11;;;;;;;2.80;1.83;;;;;;;;;;5032841;28;20397;-83
2023/10/17 04:31:45;;;;;;;3.65;1.67;;;;;;;;;;5032470;28;20040;-83
2023/10/17 04:34:26;;;;;;;2.72;1.42;;;;;;;;;;5019120;28;20029;-85
2023/10/17 04:36:55;;;;;;;2.95;1.65;;;;;;;;;;5026686;28;20033;-84
2023/10/17 04:44:32;;;;;;;3.78;1.60;;;1.00;99.90;;;;;;5025804;28;20063;-84
2023/10/17 04:49:36;;;;;;;5.85;2.00;;;0.80;99.90;;;;;;5028496;28;20092;-84
2023/10/17 04:52:06;;;;;;;5.45;2.08;;;;;;;;;;5037201;28;20036;-83
2023/10/17 04:57:04;;;;;;;5.10;1.90;;;;;;;;;;5039259;28;20100;-82
2023/10/17 05:00:24;;;;;;;2.92;1.50;;;;;;;;;;5060000;28;20081;-81
2023/10/17 05:07:52;;;;;;;4.15;2.08;;;;;;;;;;5033491;28;20048;-83
2023/10/17 06:19:15;;;;;;;4.28;2.17;;;;;;;;;;5047315;28;20491;-83
2023/10/17 06:22:35;;;;;;;5.22;2.22;;;;;;;;;;5038230;28;20025;-83
2023/10/17 06:28:13;;;;;;;5.57;2.28;;;;;;;;;;5029273;28;20462;-82
2023/10/17 06:30:26;;;;;;;2.60;1.50;;;;;;;;;;5035894;28;20139;-83
2023/10/17 06:33:04;;;;;;;5.20;2.38;;;;;;;;;;5030450;28;20055;-83
2023/10/17 06:35:31;;;;;;;4.43;1.98;;;;;;;;;;5026171;28;21045;-83
2023/10/17 06:37:58;;;;;;;3.38;2.17;;;;;;;;;;5022685;28;20051;-83
2023/10/17 06:40:30;;;;;;;4.25;2.05;;;;;;;;;;5024684;28;20029;-83
2023/10/17 06:42:59;;;;;;;3.60;1.85;;;;;;;;;;5025601;28;20083;-83
2023/10/17 06:45:29;;;;;;;5.10;2.45;;;;;;;;;;5030162;28;20030;-82
2023/10/17 06:47:58;;;;;;;8.13;4.20;;;;;;;;;;5025596;28;20032;-83
2023/10/17 06:53:28;;;;;;;13.57;4.35;;;;;;;;;;5035773;28;20041;-83
2023/10/17 06:56:04;;;;;;;4.53;2.65;;;2.60;99.90;;;;;;5031150;28;20117;-82
2023/10/17 06:58:32;;;;;;;4.57;2.67;;;;;;;;;;5033170;28;20542;-83
2023/10/17 07:00:59;;;;;;;3.83;2.10;;;;;;;;;;5035043;28;20055;-84
2023/10/17 07:03:25;;;;;;;17.10;7.20;;;;;;;;;;5038012;28;20033;-84
2023/10/17 07:06:03;;;;;;;21.50;7.90;;;2.50;99.90;;;;;;5037230;28;20484;-84
2023/10/17 07:08:36;;;;;;;6.82;3.60;;;;;;;;;;5032595;28;20025;-84
2023/10/17 07:16:41;;;;;;;8.32;4.05;;;;;;;;;;5028856;28;20119;-83
2023/10/17 07:24:26;;;;;;;9.10;4.13;;;3.60;99.90;;;;;;5030054;28;20033;-84
2023/10/17 07:26:55;;;;;;;8.23;4.72;;;3.40;99.90;;;;;;5051770;28;20101;-83
2023/10/17 07:29:22;;;;;;;6.80;4.45;;;;;;;;;;5043833;28;20108;-84
2023/10/17 07:31:56;;;;;;;18.58;8.57;;;;;;;;;;5017563;28;20494;-84
2023/10/17 07:34:23;;;;;;;18.10;9.00;;;4.00;99.90;;;;;;5015262;28;20471;-85
2023/10/17 07:36:58;;;;;;;12.32;7.57;;;;;;;;;;5023569;28;20029;-83
2023/10/17 07:39:24;;;;;;;16.88;7.53;;;;;;;;;;5022158;28;20035;-83
2023/10/17 07:41:54;;;;;;;8.18;4.05;;;;;;;;;;5023659;28;20033;-85
2023/10/17 07:44:25;;;;;;;10.32;4.68;;;3.90;99.90;;;;;;5024677;28;20450;-85
2023/10/17 07:49:43;;;;;;;9.85;3.63;;;4.50;99.90;;;;;;5034679;28;20119;-84
2023/10/17 07:52:12;;;;;;;8.60;3.72;;;4.60;99.90;;;;;;5031689;28;20036;-83
2023/10/17 07:57:26;;;;;;;5.93;3.38;;;;;;;;;;5039367;28;20509;-84
2023/10/17 07:59:52;;;;;;;7.80;4.07;;;;;;;;;;5038927;28;20033;-84
2023/10/17 08:02:30;;;;;;;9.02;3.55;;;;;;;;;;5041098;28;20037;-84
2023/10/17 08:05:00;;;;;;;6.72;3.40;;;;;;;;;;5032210;28;20501;-84
2023/10/17 08:07:29;;;;;;;6.40;2.78;;;;;;;;;;5042845;28;20067;-84
2023/10/17 08:09:58;;;;;;;6.82;3.15;;;;;;;;;;5041592;28;20107;-83
2023/10/17 08:12:24;;;;;;;6.07;3.22;;;;;;;;;;5034207;28;20030;-85
2023/10/17 08:14:58;;;;;;;32.80;11.35;;;;;;;;;;5039930;28;20029;-86
2023/10/17 08:17:27;;;;;;;23.35;8.18;;;5.60;99.90;;;;;;5038192;28;20083;-87
2023/10/17 08:22:25;;;;;;;24.70;9.00;;;;;;;;;;5035713;28;20025;-84
2023/10/17 08:24:51;;;;;;;18.35;8.23;;;;;;;;;;5032275;28;20501;-84
2023/10/17 08:29:57;;;;;;;11.05;6.47;;;;;;;;;;5040074;28;20485;-84
2023/10/17 08:37:43;;;;;;;12.18;5.72;;;;;;;;;;5045460;28;20059;-84
2023/10/17 08:42:56;;;;;;;11.45;4.35;;;;;;;;;;5036049;28;20035;-83
2023/10/17 08:45:26;;;;;;;6.88;3.17;;;;;;;;;;5030223;28;20115;-83
2023/10/17 08:47:52;;;;;;;6.90;3.47;;;;;;;;;;5035442;28;20527;-85
2023/10/17 08:50:18;;;;;;;4.40;2.40;;;;;;;;;;5038014;28;20025;-84
2023/10/17 08:52:45;;;;;;;5.85;2.08;;;;;;;;;;5034649;28;20024;-84
2023/10/17 08:55:15;;;;;;;4.38;1.95;;;;;;;;;;5037742;28;20061;-84
2023/10/17 08:57:41;;;;;;;5.88;1.45;;;;;;;;;;5030640;28;20037;-84
2023/10/17 09:02:43;;;;;;;6.80;1.67;;;;;;;;;;5033142;28;20094;-84
2023/10/17 09:05:25;;;;;;;4.70;1.60;;;;;;;;;;5015224;28;20059;-84
2023/10/17 09:07:55;;;;;;;3.97;1.73;;;;;;;;;;5035810;28;20819;-83
2023/10/17 09:10:45;;;;;;;2.50;1.25;;;;;;;;;;5035485;28;20660;-84
2023/10/17 09:13:51;;;;;;;7.07;2.05;;;;;;;;;;5035886;28;20021;-84
2023/10/17 09:16:10;;;;;;;2.58;1.30;;;;;;;;;;5027874;28;20040;-83
2023/10/17 09:18:42;;;;;;;2.92;1.45;;;;;;;;;;5029214;28;20095;-83
2023/10/17 09:21:09;;;;;;;6.67;1.80;;;;;;;;;;5034394;28;20052;-84
2023/10/17 09:23:38;;;;;;;1.73;1.20;;;;;;;;;;5041334;28;20632;-84
2023/10/17 09:26:07;;;;;;;4.57;2.22;;;;;;;;;;5032660;28;20025;-85
2023/10/17 09:28:40;;;;;;;3.85;1.52;;;;;;;;;;5039645;28;20094;-85
2023/10/17 09:31:08;;;;;;;8.65;1.55;;;;;;;;;;5039909;28;20381;-85
2023/10/17 09:33:45;;;;;;;3.70;2.22;;;10.40;99.90;;;;;;5040481;28;20095;-85
2023/10/17 09:36:12;;;;;;;5.50;2.47;;;;;;;;;;5038575;28;20025;-85
2023/10/17 09:38:43;;;;;;;2.55;1.38;;;10.50;99.90;;;;;;5048255;28;20026;-84
2023/10/17 09:41:11;;;;;;;6.88;2.17;;;;;;;;;;5046350;28;20025;-85
2023/10/17 09:43:38;;;;;;;5.75;1.40;;;;;;;;;;5036755;28;20037;-84
2023/10/17 09:46:06;;;;;;;3.58;1.70;;;;;;;;;;5042823;28;20032;-84
2023/10/17 09:48:36;;;;;;;5.47;2.22;;;;;;;;;;5042611;28;20061;-85
2023/10/17 09:51:03;;;;;;;4.40;2.05;;;;;;;;;;5042685;28;20432;-84
2023/10/17 09:53:33;;;;;;;5.75;1.95;;;;;;;;;;5041513;28;20115;-84
2023/10/17 09:56:06;;;;;;;3.10;1.63;;;9.50;99.90;;;;;;5035449;28;20584;-84
2023/10/17 09:58:33;;;;;;;3.05;1.23;;;;;;;;;;5031323;28;20043;-85
2023/10/17 10:01:20;;;;;;;4.15;1.92;;;;;;;;;;5044693;28;20031;-83
2023/10/17 10:03:51;;;;;;;3.25;1.48;;;;;;;;;;5064414;28;20088;-84
2023/10/17 10:06:21;;;;;;;3.38;1.40;;;;;;;;;;5041059;28;20091;-85
2023/10/17 10:08:47;;;;;;;3.33;1.35;;;;;;;;;;5032123;28;20037;-84
2023/10/17 10:11:15;;;;;;;2.85;1.55;;;;;;;;;;5030920;28;20607;-84
2023/10/17 10:14:00;;;;;;;6.72;1.38;;;;;;;;;;5039204;28;20087;-86
2023/10/17 10:16:46;;;;;;;3.08;1.23;;;;;;;;;;5036787;28;20041;-85
2023/10/17 10:19:14;;;;;;;2.53;1.60;;;;;;;;;;5035151;28;20048;-84
2023/10/17 10:21:54;;;;;;;2.70;1.50;;;;;;;;;;5039089;28;20036;-84
2023/10/17 10:24:26;;;;;;;2.63;1.33;;;;;;;;;;5040792;28;20039;-86
2023/10/17 10:30:26;;;;;;;4.90;1.40;;;;;;;;;;5041680;28;20041;-85
2023/10/17 10:32:52;;;;;;;3.20;1.40;;;;;;;;;;5039411;28;20033;-85
2023/10/17 10:35:18;;;;;;;3.88;1.23;;;;;;;;;;5042901;28;20039;-85
2023/10/17 10:37:54;;;;;;;4.72;1.27;;;;;;;;;;5034854;28;20035;-85
2023/10/17 10:40:30;;;;;;;2.13;1.10;;;;;;;;;;5041480;28;20386;-86
2023/10/17 10:42:59;;;;;;;3.30;1.50;;;;;;;;;;5033946;28;20560;-86
2023/10/17 10:45:26;;;;;;;2.95;1.02;;;;;;;;;;5028998;28;20149;-85
2023/10/17 10:47:57;;;;;;;2.78;1.33;;;;;;;;;;5038059;28;20064;-85
2023/10/17 10:50:24;;;;;;;4.25;1.95;;;;;;;;;;5044149;28;20056;-85
2023/10/17 10:52:50;;;;;;;4.32;1.27;;;;;;;;;;5036488;28;20034;-85
2023/10/17 10:55:17;;;;;;;3.63;1.35;;;;;;;;;;5032650;28;20295;-84
2023/10/17 10:57:46;;;;;;;3.08;1.60;;;;;;;;;;5030532;28;20573;-84
2023/10/17 11:00:15;;;;;;;2.67;1.25;;;;;;;;;;5031628;28;20033;-84
2023/10/17 11:02:42;;;;;;;3.33;1.00;;;;;;;;;;5040161;28;20022;-84
2023/10/17 11:05:10;;;;;;;2.65;1.35;;;;;;;;;;5035814;28;20029;-84
2023/10/17 11:07:36;;;;;;;5.30;1.13;;;;;;;;;;5037604;28;20029;-84
2023/10/17 11:10:06;;;;;;;2.60;1.33;;;;;;;;;;5032235;28;20064;-85
2023/10/17 11:12:33;;;;;;;4.38;1.50;;;;;;;;;;5024496;28;20029;-83
2023/10/17 11:15:14;;;;;;;1.75;0.88;;;;;;;;;;5022773;28;20039;-85
2023/10/17 11:17:41;;;;;;;3.80;1.48;;;;;;;;;;5024600;28;20033;-85
2023/10/17 11:20:14;;;;;;;4.10;1.83;;;;;;;;;;5028181;28;20025;-85
2023/10/17 11:22:40;;;;;;;2.65;1.35;;;;;;;;;;5036773;28;20021;-84
2023/10/17 11:25:10;;;;;;;2.40;1.27;;;;;;;;;;5034840;28;20089;-84
2023/10/17 11:27:39;;;;;;;2.13;1.10;;;;;;;;;;5035809;28;20505;-84
2023/10/17 11:30:06;;;;;;;1.92;1.13;;;;;;;;;;5033404;28;20071;-85
2023/10/17 11:32:39;;;;;;;1.63;0.88;;;;;;;;;;5038294;28;20498;-84
2023/10/17 11:35:06;;;;;;;;;;;;;;;;;;5032411;28;20100;-85
2023/10/17 11:37:34;;;;;;;2.50;1.08;;;;;;;;;;5035303;28;19916;-84
2023/10/17 11:40:28;;;;;;;4.20;1.42;;;;;;;;;;5030363;28;20033;-85
2023/10/17 11:42:49;;;;;;;4.80;1.40;;;;;;;;;;5025457;28;20406;-84
2023/10/17 11:45:34;;;;;;;3.25;1.35;;;;;;;;;;5040004;28;20025;-84
2023/10/17 11:48:14;;;;;;;3.83;1.50;;;;;;;;;;5032206;28;20040;-85
2023/10/17 11:50:40;;;;;;;6.63;1.38;;;;;;;;;;5031007;28;20036;-86
2023/10/17 11:53:09;;;;;;;3.28;1.20;;;;;;;;;;5027621;28;20113;-84
2023/10/17 11:55:45;;;;;;;3.97;1.30;;;;;;;;;;5033439;28;20029;-84
2023/10/17 11:58:11;;;;;;;3.63;1.15;;;;;;;;;;5034962;28;20025;-86
2023/10/17 12:00:37;;;;;;;3.05;1.05;;;;;;;;;;5029152;28;20036;-84
2023/10/17 12:03:03;;;;;;;3.55;1.23;;;;;;;;;;5034995;28;20029;-85
2023/10/17 12:05:32;;;;;;;4.47;1.05;;;;;;;;;;5034080;28;20031;-85
2023/10/17 12:07:59;;;;;;;3.05;1.33;;;;;;;;;;5033778;28;20107;-85
2023/10/17 12:10:25;;;;;;;4.35;1.30;;;;;;;;;;5029033;28;20640;-84
2023/10/17 12:13:06;;;;;;;2.72;1.30;;;;;;;;;;5028173;28;20494;-84
2023/10/17 12:15:32;;;;;;;1.90;1.10;;;;;;;;;;5034729;28;20045;-85
2023/10/17 12:17:58;;;;;;;3.63;1.33;;;;;;;;;;5035842;28;20057;-85
2023/10/17 12:20:28;;;;;;;6.50;1.38;;;;;;;;;;5039127;28;20029;-84
2023/10/17 12:22:57;;;;;;;2.70;0.93;;;;;;;;;;5036869;28;20033;-84
2023/10/17 12:25:23;;;;;;;7.88;1.65;;;;;;;;;;5032109;28;20060;-86
2023/10/17 12:27:52;;;;;;;1.95;0.93;;;;;;;;;;5041187;28;20091;-84
2023/10/17 12:30:23;;;;;;;2.80;1.10;;;;;;;;;;5037234;28;20029;-85
2023/10/17 12:32:49;;;;;;;7.70;1.25;;;;;;;;;;5045424;28;20033;-85
2023/10/17 12:35:16;;;;;;;3.40;1.38;;;;;;;;;;5043641;28;20516;-86
2023/10/17 12:37:45;;;;;;;3.13;1.00;;;;;;;;;;5037634;28;20033;-84
2023/10/17 12:40:32;;;;;;;4.05;1.23;;;;;;;;;;5043792;28;20029;-85
2023/10/17 12:42:58;;;;;;;2.80;1.38;;;;;;;;;;5046522;28;20040;-82
2023/10/17 12:45:24;;;;;;;3.35;1.20;;;;;;;;;;5052994;28;20056;-84
2023/10/17 12:47:51;;;;;;;3.10;1.13;;;;;;;;;;5036343;28;20053;-85
2023/10/17 12:50:20;;;;;;;4.07;1.75;;;;;;;;;;5033042;28;20196;-84
2023/10/17 12:52:46;;;;;;;4.32;1.40;;;;;;;;;;5033212;28;20033;-86
2023/10/17 12:55:13;;;;;;;3.38;0.80;;;;;;;;;;5042940;28;20025;-85
2023/10/17 12:57:39;;;;;;;4.53;1.27;;;;;;;;;;5036739;28;20037;-83
2023/10/17 13:00:11;;;;;;;4.50;1.55;;;;;;;;;;5035411;28;20029;-84
2023/10/17 13:02:40;;;;;;;3.70;1.13;;;;;;;;;;5036269;28;20024;-84
2023/10/17 13:05:12;;;;;;;4.57;1.25;;;;;;;;;;5032151;28;20044;-83
2023/10/17 13:07:39;;;;;;;2.70;1.08;;;;;;;;;;5045405;28;20422;-84
2023/10/17 13:10:07;;;;;;;3.40;1.42;;;;;;;;;;5034249;28;20124;-86
2023/10/17 13:12:35;;;;;;;2.90;1.08;;;;;;;;;;5027042;28;20025;-84
2023/10/17 13:15:01;;;;;;;5.38;1.60;;;;;;;;;;5037177;28;20037;-85
2023/10/17 13:17:28;;;;;;;5.30;1.48;;;;;;;;;;5036109;28;20039;-85
2023/10/17 13:19:55;;;;;;;2.88;1.20;;;;;;;;;;5033529;28;20037;-85
2023/10/17 13:22:22;;;;;;;3.95;1.48;;;;;;;;;;5030158;28;20056;-85
2023/10/17 13:24:50;;;;;;;2.95;1.10;;;;;;;;;;5045673;28;20029;-86
2023/10/17 13:27:16;;;;;;;5.90;1.42;;;;;;;;;;5047604;28;20038;-85
2023/10/17 13:29:42;;;;;;;3.55;0.90;;;;;;;;;;5041900;28;20035;-85
2023/10/17 13:32:10;;;;;;;3.20;1.45;;;;;;;;;;5036731;28;20543;-85
2023/10/17 13:34:37;;;;;;;4.38;1.48;;;;;;;;;;5040948;28;20123;-85
2023/10/17 13:37:07;;;;;;;5.50;1.25;;;;;;;;;;5041119;28;20104;-85
2023/10/17 13:39:33;;;;;;;8.45;1.73;;;;;;;;;;5038448;28;20036;-84
2023/10/17 13:41:59;;;;;;;4.32;1.58;;;;;;;;;;5017176;28;20044;-85
2023/10/17 13:44:25;;;;;;;2.53;1.05;;;;;;;;;;5038123;28;20590;-85
2023/10/17 13:46:52;;;;;;;7.07;2.20;;;;;;;;;;5041354;28;20710;-85
2023/10/17 13:49:20;;;;;;;25.70;8.63;;;;;;;;;;5036670;28;20037;-83
2023/10/17 13:51:46;;;;;;;23.00;6.75;;;;;;;;;;5043183;28;20047;-86
2023/10/17 13:54:13;;;;;;;5.70;2.95;;;;;;;;;;5039740;28;20029;-85
2023/10/17 13:56:40;;;;;;;3.83;1.50;;;;;;;;;;5049970;28;20063;-87
2023/10/17 13:59:09;;;;;;;1.98;1.17;;;;;;;;;;5047286;28;20033;-85
2023/10/17 14:01:41;;;;;;;2.30;1.30;;;;;;;;;;5040822;28;20078;-86
2023/10/17 14:04:09;;;;;;;2.30;1.13;;;;;;;;;;5041203;28;20017;-86
2023/10/17 14:06:39;;;;;;;4.03;1.08;;;;;;;;;;5044027;28;20472;-86
2023/10/17 14:09:14;;;;;;;2.95;1.52;;;;;;;;;;5040961;28;20013;-86
2023/10/17 14:11:41;;;;;;;5.47;1.85;;;;;;;;;;5045583;28;20447;-86
2023/10/17 14:14:07;;;;;;;5.28;1.58;;;;;;;;;;5037277;28;20021;-86
2023/10/17 14:16:40;;;;;;;3.28;1.17;;;;;;;;;;5018651;28;20486;-85
2023/10/17 14:19:18;;;;;;;1.73;1.00;;;10.70;99.90;;;;;;5032431;28;20382;-86
2023/10/17 14:27:14;;;;;;;2.78;1.48;;;;;;;;;;5014839;28;20098;-84
2023/10/17 14:29:44;;;;;;;2.83;1.40;;;;;;;;;;5025495;28;20060;-86
2023/10/17 14:32:09;;;;;;;3.72;1.30;;;;;;;;;;5012432;28;20037;-85
2023/10/17 14:34:37;;;;;;;2.85;1.48;;;;;;;;;;5023280;28;20051;-84
2023/10/17 14:37:05;;;;;;;3.22;1.27;;;;;;;;;;5034950;28;20513;-85
2023/10/17 14:39:31;;;;;;;1.92;0.90;;;;;;;;;;5018669;28;20048;-86
2023/10/17 14:41:57;;;;;;;4.00;1.65;;;;;;;;;;5043634;28;20440;-87
2023/10/17 14:44:24;;;;;;;2.97;1.00;;;;;;;;;;5020902;28;20248;-86
2023/10/17 14:46:52;;;;;;;4.28;1.27;;;;;;;;;;5032558;28;20203;-87
2023/10/17 14:49:19;;;;;;;2.22;1.00;;;;;;;;;;5028409;28;20030;-86
2023/10/17 14:51:45;;;;;;;2.22;1.10;;;;;;;;;;5033775;28;20074;-85
2023/10/17 14:54:13;;;;;;;2.33;1.10;;;;;;;;;;5034278;28;20116;-85
2023/10/17 14:56:39;;;;;;;5.20;1.58;;;;;;;;;;5036738;28;20430;-87
2023/10/17 14:59:05;;;;;;;4.20;1.25;;;;;;;;;;5036776;28;20551;-85
2023/10/17 15:01:31;;;;;;;4.30;1.85;;;;;;;;;;5038988;28;20076;-84
2023/10/17 15:03:59;;;;;;;7.18;2.78;;;;;;;;;;5026026;28;20044;-86
2023/10/17 15:06:25;;;;;;;5.32;2.03;;;;;;;;;;5040025;28;20035;-86
2023/10/17 15:08:51;;;;;;;4.25;1.60;;;;;;;;;;5033693;28;20397;-85
2023/10/17 15:11:20;;;;;;;3.65;1.65;;;;;;;;;;5037096;28;20433;-85
2023/10/17 15:13:46;;;;;;;4.55;1.23;;;;;;;;;;5038006;28;20029;-86
2023/10/17 15:16:19;;;;;;;2.45;1.20;;;;;;;;;;5038569;28;20437;-86
2023/10/17 15:18:46;;;;;;;4.35;1.27;;;;;;;;;;5035236;28;20025;-85
2023/10/17 15:21:13;;;;;;;4.68;1.42;;;;;;;;;;5029209;28;20033;-85
2023/10/17 15:23:46;;;;;;;3.63;1.42;;;;;;;;;;5032639;28;20500;-84
2023/10/17 15:26:12;;;;;;;2.40;1.08;;;;;;;;;;5038981;28;20029;-84
2023/10/17 15:28:44;;;;;;;2.65;0.93;;;10.30;99.90;;;;;;5063122;28;20052;-84
2023/10/17 15:31:11;;;;;;;3.80;1.50;;;;;;;;;;5037164;28;20140;-86
2023/10/17 15:33:37;;;;;;;2.80;1.13;;;;;;;;;;5025678;28;20045;-85
2023/10/17 15:36:04;;;;;;;2.42;1.27;;;;;;;;;;5022721;28;20104;-85
2023/10/17 15:38:33;;;;;;;4.63;1.63;;;;;;;;;;5040279;28;20065;-86
2023/10/17 15:41:00;;;;;;;5.43;1.70;;;9.10;99.90;;;;;;5032155;28;20545;-86
2023/10/17 15:43:26;;;;;;;3.03;1.50;;;;;;;;;;5032763;28;20033;-85
2023/10/17 15:45:56;;;;;;;3.85;1.63;;;;;;;;;;5034858;28;20478;-85
2023/10/17 15:48:26;;;;;;;4.25;1.60;;;;;;;;;;5033315;28;20033;-87
2023/10/17 15:50:56;;;;;;;4.15;1.75;;;;;;;;;;5026526;28;20090;-86
2023/10/17 15:53:26;;;;;;;3.00;1.73;;;;;;;;;;5036460;28;20045;-87
2023/10/17 15:55:52;;;;;;;3.47;1.23;;;;;;;;;;5032656;28;20068;-87
2023/10/17 15:58:19;;;;;;;2.42;0.90;;;;;;;;;;5025003;28;20022;-86
2023/10/17 16:00:46;;;;;;;6.22;1.98;;;;;;;;;;5035650;28;20030;-85
2023/10/17 16:03:14;;;;;;;3.83;1.77;;;;;;;;;;5016841;28;20520;-86
2023/10/17 16:05:40;;;;;;;3.17;1.40;;;;;;;;;;5035087;28;21585;-85
2023/10/17 16:08:06;;;;;;;4.85;2.28;;;;;;;;;;5034656;28;20072;-85
2023/10/17 16:10:34;;;;;;;5.03;2.40;;;;;;;;;;5036892;28;20028;-87
2023/10/17 16:13:01;;;;;;;3.60;2.17;;;;;;;;;;5027565;28;20017;-86
2023/10/17 16:15:26;;;;;;;6.07;2.47;;;;;;;;;;5024854;28;20033;-85
2023/10/17 16:17:53;;;;;;;4.50;2.10;;;;;;;;;;5027409;28;20956;-86
2023/10/17 16:20:19;;;;;;;5.35;2.05;;;;;;;;;;5018985;28;20022;-86
2023/10/17 16:22:45;;;;;;;4.32;1.92;;;;;;;;;;5024652;28;20482;-85
2023/10/17 16:25:13;;;;;;;3.88;1.65;;;;;;;;;;5022691;28;20021;-86
2023/10/17 16:27:39;;;;;;;2.30;1.23;;;;;;;;;;5025090;28;20498;-85
2023/10/17 16:30:10;;;;;;;3.80;1.67;;;7.70;99.90;;;;;;5033483;28;20426;-85
2023/10/17 16:32:37;;;;;;;6.13;2.13;;;;;;;;;;5026245;28;20035;-86
2023/10/17 16:35:04;;;;;;;4.32;1.90;;;;;;;;;;5035744;28;20029;-85
2023/10/17 16:37:32;;;;;;;3.67;2.20;;;;;;;;;;5021548;28;20041;-86
2023/10/17 16:39:58;;;;;;;4.53;1.92;;;;;;;;;;5025445;28;20687;-85
2023/10/17 16:42:24;;;;;;;4.28;1.92;;;;;;;;;;5039304;28;20021;-84
2023/10/17 16:44:52;;;;;;;4.05;1.73;;;;;;;;;;5032947;28;20030;-85
2023/10/17 16:47:19;;;;;;;2.97;1.42;;;;;;;;;;5029311;28;20040;-85
2023/10/17 16:49:46;;;;;;;3.47;1.60;;;;;;;;;;5035378;28;20040;-86
2023/10/17 16:52:12;;;;;;;4.57;1.50;;;;;;;;;;5037207;28;20041;-84
2023/10/17 16:54:38;;;;;;;5.60;1.77;;;;;;;;;;5034811;28;20022;-86
2023/10/17 16:57:07;;;;;;;14.55;2.42;;;;;;;;;;5039722;28;20030;-83
2023/10/17 16:59:34;;;;;;;6.93;2.50;;;;;;;;;;5028802;28;20060;-86
2023/10/17 17:02:00;;;;;;;9.23;2.20;;;;;;;;;;5041570;28;20024;-85
2023/10/17 17:04:26;;;;;;;5.85;2.92;;;;;;;;;;5043574;28;20021;-86
2023/10/17 17:06:52;;;;;;;5.57;2.22;;;;;;;;;;5041927;28;20033;-85
2023/10/17 17:09:20;;;;;;;4.53;2.22;;;;;;;;;;5046580;28;20088;-87
2023/10/17 17:11:47;;;;;;;13.57;2.38;;;6.30;99.90;;;;;;5049413;28;20040;-85
2023/10/17 17:14:14;;;;;;;6.55;2.40;;;;;;;;;;5044770;28;20035;-85
2023/10/17 17:16:46;;;;;;;6.93;2.15;;;;;;;;;;5044122;28;20034;-87
2023/10/17 17:19:17;;;;;;;5.57;2.33;;;;;;;;;;5044213;28;20025;-86
2023/10/17 17:21:45;;;;;;;5.10;2.58;;;;;;;;;;5040478;28;20025;-86